Buenos Aires, Argentina
Current Conditions -  °F | °C
As of 2:00 PM on Friday 24 Oct 2014 (Local Time) from SABE Reporting Station
Scattered Clouds Scattered Clouds  
Wind Chill: 79°   Ceiling: Unl
Heat Index: 81°   Visibility: 6mi
Dew Point: 64°   Wind: 8mph
Humidity: 61%   Direction: 90°E
Pressure: 29.97"   Gusts: NA
Location:  34.61°S, 58.37°W
Report Text: SABE 241700Z 09007KT 9999 FEW035 SCT20026/18 Q1015
Loading
Personal Weather Stations






























Interactive Weather Map
Tropical Storm Tracking
New forecast layout! Learn more

10-Day Weather Forecast

Advertisements
Track Severe Weather on mobile